createdAt,value
2018-05-11T00:01:46.284Z,13.13
2018-05-11T00:04:13.780Z,12.23
2018-05-11T00:06:41.223Z,15.87
2018-05-11T00:09:08.675Z,19.67
2018-05-11T00:11:36.108Z,20.53
2018-05-11T00:14:03.561Z,17.90
2018-05-11T00:16:31.774Z,13.37
2018-05-11T00:18:59.207Z,17.60
2018-05-11T00:21:26.624Z,15.93
2018-05-11T00:23:54.817Z,17.13
2018-05-11T00:26:23.022Z,20.33
2018-05-11T00:28:50.497Z,14.73
2018-05-11T00:31:17.967Z,14.70
2018-05-11T00:33:45.392Z,19.83
2018-05-11T00:36:12.825Z,21.90
2018-05-11T00:38:41.031Z,18.20
2018-05-11T00:41:08.481Z,19.67
2018-05-11T00:43:35.955Z,18.27
2018-05-11T00:46:03.405Z,17.17
2018-05-11T00:48:30.876Z,18.27
2018-05-11T00:50:58.316Z,13.37
2018-05-11T00:53:25.783Z,17.90
2018-05-11T00:55:53.219Z,17.63
2018-05-11T00:58:20.645Z,21.00
2018-05-11T01:00:48.838Z,22.63
2018-05-11T01:03:16.331Z,20.53
2018-05-11T01:05:43.754Z,16.97
2018-05-11T01:08:11.178Z,13.30
2018-05-11T01:10:38.719Z,14.70
2018-05-11T01:13:06.160Z,18.00
2018-05-11T01:15:33.711Z,18.43
2018-05-11T01:18:01.167Z,18.50
2018-05-11T01:20:28.598Z,19.20
2018-05-11T01:22:56.082Z,16.77
2018-05-11T01:25:23.511Z,16.63
2018-05-11T01:27:50.950Z,19.60
2018-05-11T01:30:19.158Z,18.43
2018-05-11T01:32:46.588Z,15.47
2018-05-11T01:35:14.784Z,17.53
2018-05-11T01:37:42.263Z,16.20
2018-05-11T01:40:09.719Z,21.70
2018-05-11T01:42:37.146Z,19.23
2018-05-11T01:45:04.641Z,18.60
2018-05-11T01:47:32.068Z,21.80
2018-05-11T01:49:59.491Z,22.17
2018-05-11T01:52:26.938Z,17.93
2018-05-11T01:54:54.371Z,21.53
2018-05-11T01:57:21.794Z,17.27
2018-05-11T01:59:49.280Z,19.43
2018-05-11T02:02:16.734Z,18.10
2018-05-11T02:04:44.194Z,15.03
2018-05-11T02:07:11.623Z,22.00
2018-05-11T02:09:39.105Z,15.67
2018-05-11T02:12:06.559Z,18.30
2018-05-11T02:14:33.988Z,18.10
2018-05-11T02:17:02.298Z,17.43
2018-05-11T02:19:29.771Z,20.57
2018-05-11T02:21:57.205Z,18.37
2018-05-11T02:24:24.809Z,16.23
2018-05-11T02:26:52.999Z,18.30
2018-05-11T02:29:21.205Z,18.87
2018-05-11T02:31:48.631Z,18.07
2018-05-11T02:34:16.852Z,17.10
2018-05-11T02:36:44.308Z,21.07
2018-05-11T02:39:11.733Z,15.00
2018-05-11T02:41:39.933Z,15.57
2018-05-11T02:44:07.375Z,14.50
2018-05-11T02:46:34.803Z,19.13
2018-05-11T02:49:03.002Z,15.47
2018-05-11T02:51:30.427Z,18.73
2018-05-11T02:53:57.939Z,15.63
2018-05-11T02:56:25.371Z,11.67
2018-05-11T02:58:52.803Z,13.97
2018-05-11T03:01:21.048Z,12.30
2018-05-11T03:03:48.471Z,16.33
2018-05-11T03:06:15.907Z,12.10
2018-05-11T03:08:44.106Z,12.57
2018-05-11T03:11:11.540Z,17.43
2018-05-11T03:13:39.743Z,11.87
2018-05-11T03:16:07.177Z,16.03
2018-05-11T03:18:35.526Z,12.20
2018-05-11T03:21:02.907Z,16.67
2018-05-11T03:23:30.337Z,13.23
2018-05-11T03:25:58.578Z,10.43
2018-05-11T03:28:26.001Z,13.37
2018-05-11T03:30:53.444Z,11.90
2018-05-11T03:33:21.670Z,14.17
2018-05-11T03:35:49.130Z,14.07
2018-05-11T03:38:16.551Z,9.67
2018-05-11T03:40:44.035Z,9.50
2018-05-11T03:43:11.467Z,13.07
2018-05-11T03:45:38.898Z,12.53
2018-05-11T03:48:06.406Z,13.03
2018-05-11T03:50:33.871Z,13.20
2018-05-11T03:53:01.299Z,18.00
2018-05-11T03:55:28.732Z,12.03
2018-05-11T03:57:56.158Z,13.27
2018-05-11T04:00:23.691Z,16.70
2018-05-11T04:03:03.135Z,15.17
2018-05-11T04:05:42.478Z,14.13
2018-05-11T04:08:33.750Z,16.07
2018-05-11T04:11:01.940Z,10.23
2018-05-11T04:13:29.380Z,11.43
2018-05-11T04:15:57.566Z,12.33
2018-05-11T04:18:25.000Z,7.13
2018-05-11T04:20:53.188Z,9.87
2018-05-11T04:23:21.489Z,11.43
2018-05-11T04:25:48.951Z,13.93
2018-05-11T04:28:16.383Z,12.43
2018-05-11T04:30:43.811Z,11.30
2018-05-11T04:33:11.306Z,12.87
2018-05-11T04:35:38.745Z,13.53
2018-05-11T04:38:06.952Z,14.57
2018-05-11T04:40:34.391Z,16.87
2018-05-11T04:43:01.825Z,12.97
2018-05-11T04:45:30.044Z,12.97
2018-05-11T04:47:57.476Z,16.40
2018-05-11T04:50:24.986Z,19.77
2018-05-11T04:52:52.451Z,27.10
2018-05-11T04:55:19.896Z,17.20
2018-05-11T04:57:47.348Z,15.10
2018-05-11T05:00:14.770Z,22.10
2018-05-11T05:02:42.215Z,21.73
2018-05-11T05:05:10.411Z,29.50
2018-05-11T05:07:37.849Z,27.23
2018-05-11T05:10:06.051Z,26.27
2018-05-11T05:12:33.489Z,22.42
2018-05-11T05:15:00.933Z,21.93
2018-05-11T05:17:29.137Z,24.10
2018-05-11T05:19:56.564Z,19.47
2018-05-11T05:22:24.783Z,24.17
2018-05-11T05:24:52.217Z,20.33
2018-05-11T05:27:19.663Z,20.93
2018-05-11T05:29:47.155Z,20.67
2018-05-11T05:32:14.589Z,16.50
2018-05-11T05:34:42.039Z,18.00
2018-05-11T05:37:09.541Z,18.00
2018-05-11T05:39:36.983Z,17.13
2018-05-11T05:42:04.411Z,19.87
2018-05-11T05:44:31.853Z,20.63
2018-05-11T05:46:59.313Z,15.47
2018-05-11T05:49:26.772Z,18.97
2018-05-11T05:51:54.295Z,16.73
2018-05-11T05:54:21.663Z,19.50
2018-05-11T05:56:49.144Z,22.27
2018-05-11T05:59:16.589Z,21.07
2018-05-11T06:01:44.028Z,17.43
2018-05-11T06:04:11.451Z,16.07
2018-05-11T06:06:39.656Z,22.73
2018-05-11T06:09:07.078Z,20.13
2018-05-11T06:11:35.328Z,18.77
2018-05-11T06:14:02.756Z,19.10
2018-05-11T06:16:30.230Z,22.37
2018-05-11T06:18:57.674Z,26.53
2018-05-11T06:21:25.119Z,21.53
2018-05-11T06:23:52.539Z,21.07
2018-05-11T06:26:20.759Z,21.50
2018-05-11T06:28:48.225Z,21.90
2018-05-11T06:31:15.676Z,26.90
2018-05-11T06:33:43.091Z,22.63
2018-05-11T06:36:11.311Z,22.00
2018-05-11T06:38:38.742Z,25.53
2018-05-11T06:41:06.188Z,20.50
2018-05-11T06:43:34.400Z,24.43
2018-05-11T06:46:01.908Z,27.57
2018-05-11T06:48:29.286Z,19.97
2018-05-11T06:50:56.714Z,25.23
2018-05-11T06:53:24.334Z,28.77
2018-05-11T06:55:51.761Z,29.60
2018-05-11T06:58:19.953Z,22.23
2018-05-11T07:00:47.386Z,30.53
2018-05-11T07:03:14.890Z,22.33
2018-05-11T07:05:42.329Z,21.10
2018-05-11T07:08:09.754Z,22.17
2018-05-11T07:10:38.061Z,22.93
2018-05-11T07:13:05.484Z,21.97
2018-05-11T07:15:33.719Z,21.10
2018-05-11T07:18:01.155Z,18.97
2018-05-11T07:20:28.586Z,20.50
2018-05-11T07:22:56.017Z,22.30
2018-05-11T07:25:24.246Z,21.80
2018-05-11T07:27:51.690Z,24.20
2018-05-11T07:30:19.119Z,21.37
2018-05-11T07:32:47.325Z,22.43
2018-05-11T07:35:14.783Z,22.40
2018-05-11T07:37:42.193Z,20.13
2018-05-11T07:40:09.643Z,21.80
2018-05-11T07:42:37.083Z,18.23
2018-05-11T07:45:04.525Z,19.03
2018-05-11T07:47:31.988Z,19.53
2018-05-11T07:49:59.438Z,17.97
2018-05-11T07:52:26.962Z,15.03
2018-05-11T07:54:55.173Z,13.17
2018-05-11T07:57:22.603Z,18.20
2018-05-11T07:59:50.039Z,14.47
2018-05-11T08:02:18.293Z,14.47
2018-05-11T08:04:45.730Z,13.93
2018-05-11T08:07:13.280Z,14.83
2018-05-11T08:09:40.738Z,12.05
2018-05-11T08:12:08.177Z,13.30
2018-05-11T08:14:35.718Z,14.17
2018-05-11T08:17:03.214Z,14.57
2018-05-11T08:19:30.652Z,13.33
2018-05-11T08:21:58.111Z,13.67
2018-05-11T08:24:25.535Z,12.93
2018-05-11T08:26:53.010Z,11.93
2018-05-11T08:29:21.278Z,17.23
2018-05-11T08:31:48.711Z,9.53
2018-05-11T08:34:16.152Z,11.50
2018-05-11T08:36:43.581Z,15.03
2018-05-11T08:39:11.795Z,14.80
2018-05-11T08:41:39.243Z,12.07
2018-05-11T08:44:06.686Z,12.60
2018-05-11T08:46:34.127Z,13.83
2018-05-11T08:49:02.332Z,14.67
2018-05-11T08:51:29.777Z,13.50
2018-05-11T08:53:57.228Z,14.50
2018-05-11T08:56:24.659Z,12.77
2018-05-11T08:58:52.915Z,12.03
2018-05-11T09:01:20.296Z,10.60
2018-05-11T09:03:48.510Z,11.80
2018-05-11T09:06:15.962Z,13.33
2018-05-11T09:08:43.490Z,12.87
2018-05-11T09:11:10.828Z,14.17
2018-05-11T09:13:38.351Z,12.03
2018-05-11T09:16:05.807Z,13.73
2018-05-11T09:18:33.251Z,13.90
2018-05-11T09:21:00.723Z,14.80
2018-05-11T09:23:28.171Z,10.20
2018-05-11T09:25:55.631Z,12.60
2018-05-11T09:28:23.086Z,8.77
2018-05-11T09:30:50.513Z,10.90
2018-05-11T09:33:18.827Z,13.33
2018-05-11T09:35:46.301Z,6.77
2018-05-11T09:38:13.736Z,9.98
2018-05-11T09:40:41.190Z,10.20
2018-05-11T09:43:08.641Z,10.20
2018-05-11T09:45:36.080Z,10.17
2018-05-11T09:48:03.520Z,12.20
2018-05-11T09:50:30.950Z,11.20
2018-05-11T09:52:58.469Z,11.80
2018-05-11T09:55:25.918Z,8.37
2018-05-11T09:57:53.387Z,19.60
2018-05-11T10:00:25.737Z,12.90
2018-05-11T10:02:53.177Z,9.33
2018-05-11T10:05:20.639Z,16.50
2018-05-11T10:07:48.111Z,9.20
2018-05-11T10:10:15.547Z,10.97
2018-05-11T10:12:42.985Z,11.97
2018-05-11T10:15:10.408Z,11.53
2018-05-11T10:17:38.616Z,13.50
2018-05-11T10:20:06.049Z,9.83
2018-05-11T10:22:34.248Z,9.57
2018-05-11T10:25:01.723Z,11.97
2018-05-11T10:27:29.160Z,12.23
2018-05-11T10:29:56.589Z,13.10
2018-05-11T10:32:24.935Z,12.30
2018-05-11T10:34:52.356Z,8.57
2018-05-11T10:37:19.815Z,11.40
2018-05-11T10:39:47.267Z,13.07
2018-05-11T10:42:14.776Z,13.57
2018-05-11T10:44:42.280Z,12.93
2018-05-11T10:47:09.736Z,8.97
2018-05-11T10:49:37.158Z,10.07
2018-05-11T10:52:04.592Z,6.80
2018-05-11T10:54:32.108Z,7.28
2018-05-11T10:56:59.589Z,11.43
2018-05-11T10:59:27.061Z,7.07
2018-05-11T11:01:54.539Z,8.52
2018-05-11T11:04:21.999Z,8.65
2018-05-11T11:06:49.471Z,8.73
2018-05-11T11:09:16.935Z,10.05
2018-05-11T11:11:44.369Z,7.80
2018-05-11T11:14:11.807Z,7.27
2018-05-11T11:16:39.239Z,11.12
2018-05-11T11:19:06.671Z,9.75
2018-05-11T11:21:34.115Z,6.45
2018-05-11T11:24:02.315Z,7.85
2018-05-11T11:26:29.763Z,13.80
2018-05-11T11:28:57.254Z,11.35
2018-05-11T11:31:24.676Z,11.32
2018-05-11T11:33:52.115Z,10.40
2018-05-11T11:36:19.547Z,13.52
2018-05-11T11:38:47.079Z,9.85
2018-05-11T11:41:14.531Z,10.30
2018-05-11T11:43:41.960Z,7.75
2018-05-11T11:46:09.452Z,8.65
2018-05-11T11:48:36.887Z,8.25
2018-05-11T11:51:04.338Z,11.82
2018-05-11T11:53:32.531Z,7.78
2018-05-11T11:55:59.979Z,8.75
2018-05-11T11:58:28.202Z,8.52
2018-05-11T12:00:55.743Z,12.88
2018-05-11T12:03:23.218Z,16.60
2018-05-11T12:05:50.671Z,17.40
2018-05-11T12:08:18.099Z,8.23
2018-05-11T12:10:45.543Z,13.15
2018-05-11T12:13:12.999Z,11.00
2018-05-11T12:15:41.199Z,23.02
2018-05-11T12:18:08.656Z,10.15
2018-05-11T12:20:36.090Z,11.38
2018-05-11T12:23:04.400Z,9.40
2018-05-11T12:25:31.848Z,10.63
2018-05-11T12:27:59.278Z,12.80
2018-05-11T12:30:27.485Z,11.70
2018-05-11T12:32:54.902Z,6.97
2018-05-11T12:35:23.133Z,10.65
2018-05-11T12:37:50.579Z,10.38
2018-05-11T12:40:18.127Z,9.48
2018-05-11T12:42:45.555Z,8.93
2018-05-11T12:45:13.777Z,14.50
2018-05-11T12:47:41.227Z,16.25
2018-05-11T12:50:08.666Z,12.63
2018-05-11T12:52:36.121Z,11.98
2018-05-11T12:55:03.567Z,22.10
2018-05-11T12:57:31.007Z,14.07
2018-05-11T12:59:59.217Z,9.88
2018-05-11T13:02:26.655Z,13.15
2018-05-11T13:04:54.104Z,11.32
2018-05-11T13:07:22.319Z,12.60
2018-05-11T13:09:49.804Z,13.48
2018-05-11T13:12:17.247Z,11.32
2018-05-11T13:14:44.679Z,9.43
2018-05-11T13:17:12.147Z,11.10
2018-05-11T13:19:39.575Z,8.60
2018-05-11T13:22:07.028Z,10.13
2018-05-11T13:24:35.224Z,10.30
2018-05-11T13:27:02.655Z,13.18
2018-05-11T13:29:30.120Z,9.55
2018-05-11T13:31:57.561Z,11.77
2018-05-11T13:34:25.778Z,8.85
2018-05-11T13:36:53.231Z,14.27
2018-05-11T13:39:20.723Z,12.00
2018-05-11T13:41:48.253Z,9.98
2018-05-11T13:44:15.731Z,10.85
2018-05-11T13:46:43.159Z,11.45
2018-05-11T13:49:10.613Z,10.43
2018-05-11T13:51:38.083Z,9.35
2018-05-11T13:54:05.563Z,7.87
2018-05-11T13:56:33.005Z,11.18
2018-05-11T13:59:00.426Z,7.80
2018-05-11T14:01:28.647Z,8.57
2018-05-11T14:03:56.083Z,9.32
2018-05-11T14:06:23.507Z,7.22
2018-05-11T14:08:50.940Z,11.98
2018-05-11T14:11:18.415Z,9.15
2018-05-11T14:13:45.870Z,11.48
2018-05-11T14:16:13.321Z,9.50
2018-05-11T14:18:40.759Z,9.82
2018-05-11T14:21:08.187Z,12.23
2018-05-11T14:23:37.136Z,11.15
2018-05-11T14:26:04.588Z,12.10
2018-05-11T14:28:32.022Z,12.52
2018-05-11T14:31:00.223Z,13.57
2018-05-11T14:33:27.666Z,14.05
2018-05-11T14:35:55.878Z,14.23
2018-05-11T14:38:23.328Z,13.90
2018-05-11T14:40:50.791Z,13.93
2018-05-11T14:43:18.236Z,16.85
2018-05-11T14:45:45.700Z,17.35
2018-05-11T14:48:13.145Z,15.73
2018-05-11T14:50:40.633Z,21.08
2018-05-11T14:53:08.173Z,17.60
2018-05-11T14:55:35.519Z,18.27
2018-05-11T14:58:02.955Z,20.52
2018-05-11T15:00:30.438Z,19.65
2018-05-11T15:02:57.863Z,20.00
2018-05-11T15:05:26.079Z,19.17
2018-05-11T15:07:54.479Z,19.12
2018-05-11T15:10:22.016Z,18.17
2018-05-11T15:12:49.487Z,19.62
2018-05-11T15:15:16.936Z,21.80
2018-05-11T15:17:44.394Z,23.20
2018-05-11T15:20:11.836Z,25.30
2018-05-11T15:22:39.303Z,23.55
2018-05-11T15:25:06.763Z,26.90
2018-05-11T15:27:34.223Z,26.73
2018-05-11T15:30:01.679Z,25.40
2018-05-11T15:32:29.130Z,26.73
2018-05-11T15:34:56.573Z,27.95
2018-05-11T15:37:24.077Z,28.15
2018-05-11T15:39:51.611Z,27.13
2018-05-11T15:42:19.059Z,27.37
2018-05-11T15:44:46.512Z,28.48
2018-05-11T15:47:13.952Z,27.60
2018-05-11T15:49:41.394Z,29.05
2018-05-11T15:52:09.600Z,28.67
2018-05-11T15:54:37.059Z,28.42
2018-05-11T15:57:04.503Z,27.87
2018-05-11T15:59:31.952Z,26.77
2018-05-11T16:01:59.401Z,26.65
2018-05-11T16:04:27.666Z,27.20
2018-05-11T16:06:55.147Z,26.48
2018-05-11T16:09:22.590Z,28.33
2018-05-11T16:11:50.805Z,27.25
2018-05-11T16:14:18.240Z,29.15
2018-05-11T16:16:45.672Z,27.98
2018-05-11T16:19:13.881Z,29.40
2018-05-11T16:21:41.990Z,29.15
2018-05-11T16:24:10.819Z,28.98
2018-05-11T16:26:39.035Z,31.27
2018-05-11T16:29:06.491Z,28.42
2018-05-11T16:31:33.933Z,28.12
2018-05-11T16:34:01.407Z,29.40
2018-05-11T16:36:28.860Z,29.15
2018-05-11T16:38:56.319Z,26.67
2018-05-11T16:41:23.761Z,27.05
2018-05-11T16:43:51.212Z,27.80
2018-05-11T16:46:18.645Z,24.58
2018-05-11T16:48:46.871Z,26.05
2018-05-11T16:51:14.375Z,26.43
2018-05-11T16:53:41.871Z,28.35
2018-05-11T16:56:09.301Z,27.08
2018-05-11T16:58:37.506Z,25.20
2018-05-11T17:01:04.959Z,26.10
2018-05-11T17:03:32.430Z,26.42
2018-05-11T17:05:59.898Z,23.92
2018-05-11T17:08:27.339Z,24.55
2018-05-11T17:10:54.795Z,24.10
2018-05-11T17:13:22.251Z,25.23
2018-05-11T17:15:49.715Z,22.60
2018-05-11T17:18:17.159Z,25.30
2018-05-11T17:20:44.629Z,22.62
2018-05-11T17:23:12.081Z,22.77
2018-05-11T17:25:39.563Z,22.00
2018-05-11T17:28:07.020Z,25.42
2018-05-11T17:30:34.455Z,26.33
2018-05-11T17:33:01.906Z,24.02
2018-05-11T17:35:29.381Z,24.63
2018-05-11T17:37:56.847Z,28.80
2018-05-11T17:40:24.283Z,22.42
2018-05-11T17:42:51.737Z,26.17
2018-05-11T17:45:19.214Z,22.85
2018-05-11T17:47:46.659Z,23.73
2018-05-11T17:50:14.125Z,23.35
2018-05-11T17:52:41.594Z,26.35
2018-05-11T17:55:09.053Z,24.23
2018-05-11T17:57:36.523Z,23.42
2018-05-11T18:00:03.999Z,26.83
2018-05-11T18:02:32.247Z,25.67
2018-05-11T18:04:59.683Z,25.05
2018-05-11T18:07:27.135Z,23.85
2018-05-11T18:09:54.595Z,25.42
2018-05-11T18:12:22.114Z,26.92
2018-05-11T18:14:49.624Z,23.90
2018-05-11T18:17:17.183Z,26.25
2018-05-11T18:19:44.629Z,24.42
2018-05-11T18:22:12.091Z,24.08
2018-05-11T18:24:39.532Z,25.13
2018-05-11T18:27:07.007Z,22.67
2018-05-11T18:29:34.471Z,24.33
2018-05-11T18:32:02.109Z,22.77
2018-05-11T18:34:29.591Z,32.10
2018-05-11T18:36:57.079Z,30.65
2018-05-11T18:39:24.555Z,24.85
2018-05-11T18:41:52.865Z,37.78
2018-05-11T18:44:20.318Z,27.20
2018-05-11T18:46:47.779Z,27.48
2018-05-11T18:49:15.207Z,33.45
2018-05-11T18:51:42.651Z,27.15
2018-05-11T18:54:11.134Z,26.67
2018-05-11T18:56:38.373Z,28.48
2018-05-11T18:59:06.611Z,26.85
2018-05-11T19:01:34.121Z,24.93
2018-05-11T19:04:01.560Z,26.00
2018-05-11T19:06:29.003Z,24.85
2018-05-11T19:08:56.541Z,25.60
2018-05-11T19:11:24.014Z,24.20
2018-05-11T19:13:52.290Z,27.17
2018-05-11T19:16:19.783Z,31.30
2018-05-11T19:18:48.016Z,25.33
2018-05-11T19:21:16.230Z,29.10
2018-05-11T19:23:43.672Z,31.63
2018-05-11T19:26:11.882Z,27.43
2018-05-11T19:28:39.384Z,25.35
2018-05-11T19:31:06.876Z,22.73
2018-05-11T19:33:34.303Z,30.17
2018-05-11T19:36:01.848Z,26.33
2018-05-11T19:38:29.285Z,24.70
2018-05-11T19:40:56.751Z,22.80
2018-05-11T19:43:24.183Z,20.23
2018-05-11T19:45:52.412Z,19.53
2018-05-11T19:48:19.852Z,24.67
2018-05-11T19:50:47.307Z,20.50
2018-05-11T19:53:14.783Z,19.27
2018-05-11T19:55:42.223Z,20.20
2018-05-11T19:58:09.681Z,20.53
2018-05-11T20:00:37.112Z,24.20
2018-05-11T20:03:04.551Z,19.67
2018-05-11T20:05:32.008Z,19.93
2018-05-11T20:07:59.459Z,21.03
2018-05-11T20:10:26.927Z,19.30
2018-05-11T20:12:54.350Z,21.20
2018-05-11T20:15:22.558Z,18.37
2018-05-11T20:17:50.015Z,19.35
2018-05-11T20:20:17.459Z,19.27
2018-05-11T20:22:44.899Z,19.77
2018-05-11T20:25:12.339Z,18.03
2018-05-11T20:27:39.780Z,20.70
2018-05-11T20:30:07.239Z,24.53
2018-05-11T20:32:35.445Z,20.40
2018-05-11T20:35:02.864Z,26.47
2018-05-11T20:37:30.363Z,23.90
2018-05-11T20:39:57.843Z,20.17
2018-05-11T20:42:25.308Z,20.43
2018-05-11T20:44:52.767Z,22.47
2018-05-11T20:47:20.999Z,23.25
2018-05-11T20:49:48.433Z,24.90
2018-05-11T20:52:15.911Z,26.00
2018-05-11T20:54:43.368Z,24.27
2018-05-11T20:57:10.801Z,23.53
2018-05-11T20:59:38.240Z,25.93
2018-05-11T21:02:06.447Z,27.03
2018-05-11T21:04:33.880Z,19.93
2018-05-11T21:07:01.319Z,23.40
2018-05-11T21:09:29.556Z,21.43
2018-05-11T21:11:57.003Z,20.37
2018-05-11T21:14:24.464Z,21.33
2018-05-11T21:16:52.018Z,21.50
2018-05-11T21:19:19.478Z,20.07
2018-05-11T21:21:46.927Z,21.37
2018-05-11T21:24:14.343Z,24.10
2018-05-11T21:26:42.559Z,22.70
2018-05-11T21:29:10.129Z,19.33
2018-05-11T21:31:37.659Z,20.93
2018-05-11T21:34:05.145Z,20.27
2018-05-11T21:36:32.592Z,22.33
2018-05-11T21:39:00.059Z,24.37
2018-05-11T21:41:27.496Z,19.83
2018-05-11T21:43:54.972Z,19.37
2018-05-11T21:46:22.427Z,22.23
2018-05-11T21:48:49.889Z,24.67
2018-05-11T21:51:17.435Z,24.40
2018-05-11T21:53:44.874Z,27.27
2018-05-11T21:56:12.355Z,24.17
2018-05-11T21:58:39.823Z,25.43
2018-05-11T22:01:07.259Z,22.93
2018-05-11T22:03:34.698Z,20.13
2018-05-11T22:06:02.158Z,22.77
2018-05-11T22:08:30.467Z,22.40
2018-05-11T22:10:57.899Z,25.40
2018-05-11T22:13:25.384Z,20.87
2018-05-11T22:15:53.551Z,25.33
2018-05-11T22:18:21.010Z,21.90
2018-05-11T22:20:48.567Z,22.13
2018-05-11T22:23:16.015Z,25.03
2018-05-11T22:25:43.471Z,24.85
2018-05-11T22:28:10.941Z,25.43
2018-05-11T22:30:38.395Z,23.73
2018-05-11T22:33:05.844Z,24.13
2018-05-11T22:35:33.276Z,24.17
2018-05-11T22:38:00.719Z,21.27
2018-05-11T22:40:28.926Z,20.23
2018-05-11T22:42:56.405Z,21.13
2018-05-11T22:45:23.842Z,22.27
2018-05-11T22:47:51.270Z,21.30
2018-05-11T22:50:19.535Z,21.80
2018-05-11T22:52:48.480Z,20.43
2018-05-11T22:55:15.913Z,23.30
2018-05-11T22:57:43.395Z,19.53
2018-05-11T23:00:10.891Z,19.70
2018-05-11T23:02:38.437Z,34.37
2018-05-11T23:05:05.980Z,23.90
2018-05-11T23:07:33.428Z,21.67
2018-05-11T23:10:01.035Z,22.67
2018-05-11T23:12:28.459Z,21.03
2018-05-11T23:14:56.926Z,23.50
2018-05-11T23:17:24.383Z,22.33
2018-05-11T23:19:51.814Z,20.83
2018-05-11T23:22:20.210Z,22.07
2018-05-11T23:24:47.719Z,20.20
2018-05-11T23:27:15.959Z,21.80
2018-05-11T23:29:43.411Z,21.37
2018-05-11T23:32:10.853Z,20.53
2018-05-11T23:34:38.329Z,20.93
2018-05-11T23:37:05.801Z,22.43
2018-05-11T23:39:33.240Z,25.30
2018-05-11T23:42:00.675Z,26.30
2018-05-11T23:44:28.111Z,28.13
2018-05-11T23:46:56.330Z,22.00
2018-05-11T23:49:23.769Z,23.53
2018-05-11T23:51:51.200Z,24.37
2018-05-11T23:54:19.405Z,25.07
2018-05-11T23:56:46.887Z,27.67
2018-05-11T23:59:14.441Z,26.43
